Detall de PIREP

Printer-friendly versionPDF version

[2010/08/04 10:19:00]
Flight IATA:CT1004
Pilot Number:042
Company ICAO:CAT
Aircraft Type:B744/E
PAX:320
Departing Airport: LEPA
Destination Airport: LEZL
Alternate Airport:LEMD
Online: VATSIM
Route:TURIA UN733 VLC UM985 VIBAS
Flight Level:FL330
No Slew and time accel
No pause
Crash detect
Detect pilot in Cockpit between each 30 and 45 minutes
10:19 Zero fuel Weight: 466689 Lbs, Fuel Weight: 120655 Lbs
10:19 VATSIM:LEPA 041000Z 22011KT 190V250 9999 FEW026 BKN048 27/19 Q1015 NOSIG
10:19 VATSIM:LEZL 041000Z 29002KT CAVOK 29/18 Q1014 NOSIG
10:19 VOICE CATALONIAN/SUMMER CHARTER
10:23 Parking Brakes off
10:31 Take-off
10:31 Take off Weight: 585183 Lbs
10:31 Wind: 212 @ 011 Knots Heading: 237
10:31 POS N39 32 50 E002 44 40
10:31 Gear Up: 183 Knots
10:31 Flaps:4 at 183 Knots
10:31 Flaps:3 at 185 Knots
10:31 Flaps:2 at 197 Knots
10:32 Flaps:1 at 221 Knots
10:3
3 Flaps:0 at 229 Knots
10:44 TOC
10:44 Fuel Weight: 107144 Lb
10:46 Wind:256@022 Knots Heading: 270 Ground Speed: 477 Knots Altitude 33008 ft
11:01 Wind:274@019 Knots Heading: 234 Ground Speed: 490 Knots Altitude 33064 ft
11:16 Wind:318@029 Knots Heading: 229 Ground Speed: 503 Knots Altitude 33070 ft
11:17 TOD
11:17 Fuel Weight: 95159 Lb
11:30 Flaps:1 at 221 Knots
11:31 Wind:249@002 Knots Heading: 273 Ground Speed: 222 Knots Altitude 2975 ft
11:33 Flaps:2 at 208 Knots
11:33 Flaps:3 at 173 Knots
11:33 Flaps:4 at 168 Knots
11:34 Gear Down: 169 Knots
11:34 Flaps:5 at 168 Knots
11:35 Flaps:6 at 160 Knots
11:38 TouchDown:Rate -292 ft/min Speed: 157 Knots
11:38 VATSIM:LEZL 041100Z 24003KT 150V310 CAVOK 31/19 Q1013 NOSIG
11:38 Land
11:38 Wind:238@003 Knots
11:38 Heading: 271
11:38 Flight Duration: 01:07
11:38 Landing Weight: 556566 Lbs
11:38 POS N37
25 03 W005 53 36
11:41 Parking brakes on
11:41 Block to Block Duration: 01:18
11:41 Final Fuel: 89292 Lbls
11:41 Spent Fuel: 31362 Lbls
11:41 Flight Length: 451 NM
11:41 TOD Land Length: 101 NM

Exportar CSV

Powered by Drupal - Modified by Danger4k